Terminal Aerodrome Forecast
Issued by NWS

Home | Current Version | Previous Version | Text Only | Print | Product List | Glossary On
Versions: 1 2 3 4 5 6 7 8 9 10 11 12 13 14 15 16 17
316
FTUS46 KSEW 192320
TAFPAE
TAF
KPAE 192320Z 2000/2024 VRB04KT P6SM VCSH SCT020 BKN040
      TEMPO 2000/2004 -SHRA BKN018 OVC040
     FM200400 VRB04KT P6SM VCSH BKN025 BKN040
     FM201800 36006KT P6SM BKN050=

USA.gov is the U.S. government's official web portal to all federal, state and local government web resources and services.